createdAt,value
2023-03-08T00:01:19.411Z,9.55
2023-03-08T00:03:46.917Z,7.93
2023-03-08T00:06:15.955Z,9.02
2023-03-08T00:08:43.575Z,8.65
2023-03-08T00:11:12.950Z,8.88
2023-03-08T00:13:41.241Z,9.15
2023-03-08T00:16:11.386Z,9.52
2023-03-08T00:18:41.090Z,8.57
2023-03-08T00:21:12.284Z,9.13
2023-03-08T00:23:40.456Z,9.73
2023-03-08T00:26:07.864Z,9.15
2023-03-08T00:28:35.417Z,9.30
2023-03-08T00:31:07.262Z,9.52
2023-03-08T00:33:35.187Z,9.05
2023-03-08T00:36:05.690Z,9.18
2023-03-08T00:38:35.420Z,9.07
2023-03-08T00:41:03.889Z,8.98
2023-03-08T00:43:31.295Z,9.48
2023-03-08T00:46:03.378Z,9.43
2023-03-08T00:48:30.994Z,9.40
2023-03-08T00:50:58.350Z,9.13
2023-03-08T00:53:25.695Z,9.25
2023-03-08T00:55:55.001Z,10.52
2023-03-08T00:58:23.742Z,9.95
2023-03-08T01:00:51.322Z,10.25
2023-03-08T01:03:19.414Z,10.80
2023-03-08T01:05:51.681Z,10.15
2023-03-08T01:08:22.236Z,11.18
2023-03-08T01:11:00.402Z,10.38
2023-03-08T01:13:35.049Z,10.63
2023-03-08T01:16:03.085Z,10.85
2023-03-08T01:18:30.349Z,11.13
2023-03-08T01:21:01.045Z,11.27
2023-03-08T01:23:28.537Z,12.25
2023-03-08T01:26:06.209Z,11.23
2023-03-08T01:28:36.641Z,12.60
2023-03-08T01:31:06.022Z,11.60
2023-03-08T01:33:33.726Z,11.82
2023-03-08T01:36:09.687Z,12.30
2023-03-08T01:38:37.605Z,11.32
2023-03-08T01:41:11.227Z,11.60
2023-03-08T01:43:41.278Z,11.88
2023-03-08T01:46:16.281Z,10.90
2023-03-08T01:48:46.252Z,12.90
2023-03-08T01:51:18.116Z,12.23
2023-03-08T01:53:46.028Z,11.40
2023-03-08T01:56:17.538Z,11.88
2023-03-08T01:58:47.772Z,11.60
2023-03-08T02:01:16.003Z,11.32
2023-03-08T02:03:46.222Z,11.98
2023-03-08T02:06:19.354Z,11.63
2023-03-08T02:08:47.026Z,12.50
2023-03-08T02:11:18.498Z,12.30
2023-03-08T02:13:45.840Z,12.52
2023-03-08T02:16:14.879Z,11.10
2023-03-08T02:19:00.522Z,11.77
2023-03-08T02:21:29.597Z,11.98
2023-03-08T02:24:02.816Z,12.43
2023-03-08T02:26:30.159Z,11.25
2023-03-08T02:28:57.441Z,11.93
2023-03-08T02:31:24.702Z,11.50
2023-03-08T02:33:51.948Z,12.38
2023-03-08T02:36:21.707Z,12.13
2023-03-08T02:38:49.006Z,12.40
2023-03-08T02:41:20.354Z,12.63
2023-03-08T02:43:47.773Z,12.25
2023-03-08T02:46:15.248Z,11.85
2023-03-08T02:48:42.531Z,11.68
2023-03-08T02:51:09.821Z,12.18
2023-03-08T02:53:37.148Z,11.55
2023-03-08T02:56:04.700Z,13.73
2023-03-08T02:58:34.186Z,12.45
2023-03-08T03:01:01.576Z,12.40
2023-03-08T03:03:28.933Z,13.10
2023-03-08T03:05:56.256Z,11.93
2023-03-08T03:08:23.618Z,11.93
2023-03-08T03:10:51.032Z,11.82
2023-03-08T03:13:18.376Z,11.90
2023-03-08T03:15:45.689Z,12.02
2023-03-08T03:18:13.157Z,12.05
2023-03-08T03:20:40.549Z,11.77
2023-03-08T03:23:08.903Z,11.50
2023-03-08T03:25:38.921Z,12.07
2023-03-08T03:28:06.210Z,12.05
2023-03-08T03:30:33.536Z,10.90
2023-03-08T03:33:00.810Z,12.02
2023-03-08T03:35:28.155Z,11.75
2023-03-08T03:37:55.423Z,11.63
2023-03-08T03:40:25.143Z,11.95
2023-03-08T03:42:52.413Z,11.52
2023-03-08T03:45:19.723Z,12.23
2023-03-08T03:47:48.072Z,11.40
2023-03-08T03:50:15.388Z,11.68
2023-03-08T03:52:42.641Z,11.95
2023-03-08T03:55:10.308Z,12.98
2023-03-08T03:57:37.689Z,12.15
2023-03-08T04:00:06.150Z,12.05
2023-03-08T04:02:33.604Z,12.18
2023-03-08T04:05:00.946Z,11.90
2023-03-08T04:07:28.395Z,12.15
2023-03-08T04:09:58.003Z,12.27
2023-03-08T04:12:25.415Z,11.75
2023-03-08T04:14:54.514Z,11.48
2023-03-08T04:17:21.792Z,12.27
2023-03-08T04:19:51.666Z,12.68
2023-03-08T04:22:19.033Z,12.07
2023-03-08T04:24:46.319Z,11.38
2023-03-08T04:27:16.148Z,12.65
2023-03-08T04:29:43.432Z,11.70
2023-03-08T04:32:13.156Z,11.48
2023-03-08T04:34:45.402Z,11.85
2023-03-08T04:37:15.124Z,12.13
2023-03-08T04:39:42.481Z,11.73
2023-03-08T04:42:09.818Z,11.82
2023-03-08T04:44:39.300Z,11.70
2023-03-08T04:47:06.746Z,12.35
2023-03-08T04:49:34.011Z,12.18
2023-03-08T04:52:01.379Z,12.02
2023-03-08T04:54:28.742Z,12.95
2023-03-08T04:56:58.229Z,12.65
2023-03-08T04:59:25.695Z,14.15
2023-03-08T05:01:53.023Z,14.88
2023-03-08T05:04:20.302Z,14.32
2023-03-08T05:06:47.591Z,13.60
2023-03-08T05:09:15.049Z,13.48
2023-03-08T05:11:42.328Z,12.82
2023-03-08T05:14:10.157Z,13.85
2023-03-08T05:16:37.536Z,13.48
2023-03-08T05:19:04.832Z,13.88
2023-03-08T05:21:32.178Z,12.73
2023-03-08T05:24:00.378Z,13.55
2023-03-08T05:26:28.693Z,13.75
2023-03-08T05:28:56.217Z,12.73
2023-03-08T05:31:23.531Z,12.73
2023-03-08T05:33:52.188Z,12.55
2023-03-08T05:36:19.906Z,12.27
2023-03-08T05:38:48.109Z,13.10
2023-03-08T05:41:16.813Z,14.18
2023-03-08T05:43:44.873Z,12.80
2023-03-08T05:46:19.886Z,14.07
2023-03-08T05:48:49.589Z,12.77
2023-03-08T05:51:18.402Z,13.60
2023-03-08T05:53:48.218Z,13.88
2023-03-08T05:56:18.111Z,14.05
2023-03-08T05:58:47.970Z,14.13
2023-03-08T06:01:19.844Z,14.30
2023-03-08T06:03:49.737Z,15.20
2023-03-08T06:06:17.571Z,14.68
2023-03-08T06:08:45.123Z,14.30
2023-03-08T06:11:16.132Z,15.02
2023-03-08T06:13:43.825Z,15.85
2023-03-08T06:16:12.423Z,15.30
2023-03-08T06:18:41.263Z,14.55
2023-03-08T06:21:14.187Z,15.30
2023-03-08T06:23:41.976Z,14.80
2023-03-08T06:26:10.769Z,14.85
2023-03-08T06:28:40.367Z,15.25
2023-03-08T06:31:09.159Z,15.43
2023-03-08T06:33:36.476Z,14.60
2023-03-08T06:36:06.584Z,15.20
2023-03-08T06:38:36.465Z,15.05
2023-03-08T06:41:07.270Z,14.27
2023-03-08T06:43:35.827Z,14.43
2023-03-08T06:46:10.423Z,14.13
2023-03-08T06:48:40.823Z,13.45
2023-03-08T06:51:08.137Z,13.73
2023-03-08T06:53:41.082Z,13.13
2023-03-08T06:56:09.464Z,13.68
2023-03-08T06:58:37.301Z,12.82
2023-03-08T07:01:05.730Z,12.00
2023-03-08T07:03:34.017Z,12.30
2023-03-08T07:06:04.277Z,11.32
2023-03-08T07:08:32.404Z,11.40
2023-03-08T07:11:00.121Z,11.05
2023-03-08T07:13:29.109Z,11.45
2023-03-08T07:15:57.511Z,10.88
2023-03-08T07:18:25.466Z,11.10
2023-03-08T07:20:56.714Z,11.13
2023-03-08T07:23:24.381Z,10.82
2023-03-08T07:25:52.090Z,10.40
2023-03-08T07:28:19.509Z,10.73
2023-03-08T07:30:51.866Z,10.73
2023-03-08T07:33:20.826Z,10.45
2023-03-08T07:35:48.808Z,11.05
2023-03-08T07:38:17.292Z,10.63
2023-03-08T07:40:44.850Z,10.65
2023-03-08T07:43:12.470Z,9.75
2023-03-08T07:45:40.046Z,11.07
2023-03-08T07:48:07.735Z,10.05
2023-03-08T07:50:35.065Z,10.38
2023-03-08T07:53:04.414Z,10.75
2023-03-08T07:55:32.060Z,11.13
2023-03-08T07:57:59.332Z,9.95
2023-03-08T08:00:26.957Z,10.50
2023-03-08T08:02:54.394Z,9.43
2023-03-08T08:05:22.214Z,9.88
2023-03-08T08:07:49.620Z,10.90
2023-03-08T08:10:17.408Z,9.95
2023-03-08T08:12:47.002Z,10.30
2023-03-08T08:15:16.903Z,9.82
2023-03-08T08:17:46.946Z,9.63
2023-03-08T08:20:16.629Z,11.13
2023-03-08T08:22:44.021Z,11.13
2023-03-08T08:25:11.536Z,10.48
2023-03-08T08:27:43.403Z,10.77
2023-03-08T08:30:13.809Z,10.35
2023-03-08T08:32:41.207Z,10.25
2023-03-08T08:35:08.924Z,10.55
2023-03-08T08:37:38.802Z,10.48
2023-03-08T08:40:08.125Z,10.02
2023-03-08T08:42:35.553Z,9.65
2023-03-08T08:45:03.110Z,9.32
2023-03-08T08:47:30.656Z,10.07
2023-03-08T08:49:57.951Z,9.00
2023-03-08T08:52:27.703Z,8.98
2023-03-08T08:54:57.953Z,9.80
2023-03-08T08:57:25.209Z,9.35
2023-03-08T08:59:54.801Z,9.07
2023-03-08T09:02:26.488Z,9.43
2023-03-08T09:07:23.070Z,8.52
2023-03-08T09:09:50.282Z,8.60
2023-03-08T09:12:17.573Z,9.38
2023-03-08T09:14:47.582Z,8.70
2023-03-08T09:17:14.832Z,9.07
2023-03-08T09:19:44.279Z,9.90
2023-03-08T09:22:11.745Z,9.30
2023-03-08T09:24:39.082Z,9.13
2023-03-08T09:27:06.995Z,8.38
2023-03-08T09:29:37.979Z,7.97
2023-03-08T09:32:08.731Z,9.02
2023-03-08T09:34:36.101Z,8.95
2023-03-08T09:37:03.842Z,9.25
2023-03-08T09:39:31.247Z,8.32
2023-03-08T09:42:01.445Z,8.32
2023-03-08T09:44:44.075Z,9.30
2023-03-08T09:47:13.264Z,9.00
2023-03-08T09:49:45.491Z,8.50
2023-03-08T09:52:21.442Z,8.82
2023-03-08T09:54:50.677Z,8.52
2023-03-08T09:57:26.718Z,9.13
2023-03-08T09:59:59.168Z,8.55
2023-03-08T10:02:41.242Z,7.90
2023-03-08T10:05:14.412Z,8.30
2023-03-08T10:08:06.488Z,8.73
2023-03-08T10:13:36.102Z,8.25
2023-03-08T10:16:28.662Z,8.38
2023-03-08T10:19:24.512Z,7.57
2023-03-08T10:21:53.000Z,7.80
2023-03-08T10:24:28.089Z,7.28
2023-03-08T10:27:06.623Z,7.43
2023-03-08T10:29:33.851Z,7.68
2023-03-08T10:32:01.130Z,7.35
2023-03-08T10:34:35.163Z,7.28
2023-03-08T10:37:06.400Z,7.80
2023-03-08T10:39:36.398Z,7.72
2023-03-08T10:42:16.835Z,8.25
2023-03-08T10:44:53.136Z,8.32
2023-03-08T10:47:26.299Z,7.68
2023-03-08T10:50:08.497Z,7.53
2023-03-08T10:52:36.017Z,6.85
2023-03-08T10:55:09.352Z,7.15
2023-03-08T10:57:39.860Z,7.47
2023-03-08T11:00:35.247Z,7.40
2023-03-08T11:03:18.223Z,7.15
2023-03-08T11:05:59.496Z,8.23
2023-03-08T11:08:33.496Z,7.45
2023-03-08T11:11:02.702Z,7.70
2023-03-08T11:13:33.326Z,7.55
2023-03-08T11:16:21.952Z,7.30
2023-03-08T11:19:19.901Z,7.90
2023-03-08T11:22:02.350Z,8.23
2023-03-08T11:25:00.300Z,8.02
2023-03-08T11:27:41.014Z,8.38
2023-03-08T11:30:12.687Z,8.35
2023-03-08T11:35:48.553Z,8.00
2023-03-08T11:38:30.483Z,8.40
2023-03-08T11:41:16.493Z,8.32
2023-03-08T11:43:55.612Z,7.68
2023-03-08T11:46:25.366Z,8.75
2023-03-08T11:49:14.560Z,8.25
2023-03-08T11:51:53.499Z,9.07
2023-03-08T11:54:38.629Z,9.50
2023-03-08T11:57:18.140Z,9.20
2023-03-08T11:59:52.945Z,8.82
2023-03-08T12:02:25.225Z,8.95
2023-03-08T12:05:20.174Z,9.10
2023-03-08T12:07:58.192Z,8.48
2023-03-08T12:10:45.029Z,8.95
2023-03-08T12:13:29.763Z,9.30
2023-03-08T12:16:16.409Z,9.00
2023-03-08T12:18:51.722Z,8.57
2023-03-08T12:21:34.433Z,8.52
2023-03-08T12:24:17.110Z,8.88
2023-03-08T12:26:59.001Z,8.52
2023-03-08T12:32:19.112Z,9.45
2023-03-08T12:34:48.222Z,9.13
2023-03-08T12:37:25.455Z,8.68
2023-03-08T12:39:58.940Z,9.05
2023-03-08T12:42:36.401Z,9.63
2023-03-08T12:45:19.424Z,9.30
2023-03-08T12:48:05.232Z,8.70
2023-03-08T12:50:46.405Z,9.70
2023-03-08T12:53:35.724Z,9.30
2023-03-08T12:56:23.281Z,9.68
2023-03-08T12:59:21.478Z,9.02
2023-03-08T13:01:57.518Z,9.70
2023-03-08T13:04:41.750Z,8.73
2023-03-08T13:07:22.320Z,9.25
2023-03-08T13:10:05.204Z,8.73
2023-03-08T13:12:52.938Z,9.02
2023-03-08T13:15:24.548Z,9.05
2023-03-08T13:17:51.834Z,9.27
2023-03-08T13:20:24.312Z,9.02
2023-03-08T13:23:15.540Z,9.35
2023-03-08T13:26:10.362Z,9.10
2023-03-08T13:28:47.831Z,8.65
2023-03-08T13:31:18.422Z,9.25
2023-03-08T13:33:49.770Z,8.07
2023-03-08T13:36:24.745Z,8.70
2023-03-08T13:39:00.069Z,8.90
2023-03-08T13:41:43.776Z,8.77
2023-03-08T13:44:29.188Z,8.57
2023-03-08T13:47:03.043Z,9.15
2023-03-08T13:49:35.770Z,8.90
2023-03-08T13:52:13.218Z,8.52
2023-03-08T13:54:45.656Z,8.32
2023-03-08T13:57:23.879Z,8.80
2023-03-08T13:59:54.532Z,9.52
2023-03-08T14:02:26.452Z,9.07
2023-03-08T14:04:59.674Z,9.77
2023-03-08T14:07:32.278Z,9.60
2023-03-08T14:10:01.809Z,8.55
2023-03-08T14:12:33.457Z,9.30
2023-03-08T14:15:04.552Z,9.80
2023-03-08T14:17:35.854Z,8.63
2023-03-08T14:20:20.903Z,9.48
2023-03-08T14:22:50.601Z,9.07
2023-03-08T14:25:22.528Z,9.02
2023-03-08T14:27:50.114Z,9.48
2023-03-08T14:30:32.404Z,9.68
2023-03-08T14:33:04.099Z,25.70
2023-03-08T14:38:00.989Z,11.10
2023-03-08T14:40:35.662Z,9.82
2023-03-08T14:43:15.696Z,12.48
2023-03-08T14:45:59.428Z,9.77
2023-03-08T14:48:32.412Z,9.32
2023-03-08T14:51:17.756Z,9.20
2023-03-08T14:54:00.792Z,9.75
2023-03-08T14:56:31.950Z,8.82
2023-03-08T14:59:01.337Z,8.65
2023-03-08T15:01:34.252Z,9.52
2023-03-08T15:04:06.775Z,9.32
2023-03-08T15:06:36.733Z,9.05
2023-03-08T15:09:07.698Z,9.43
2023-03-08T15:11:37.345Z,8.98
2023-03-08T15:14:06.863Z,9.73
2023-03-08T15:16:34.167Z,9.05
2023-03-08T15:19:01.490Z,9.63
2023-03-08T15:21:32.253Z,8.60
2023-03-08T15:24:04.641Z,9.50
2023-03-08T15:26:34.663Z,8.65
2023-03-08T15:29:06.244Z,8.70
2023-03-08T15:31:35.879Z,8.75
2023-03-08T15:34:03.752Z,9.30
2023-03-08T15:36:34.712Z,10.07
2023-03-08T15:39:04.659Z,9.02
2023-03-08T15:41:32.005Z,9.45
2023-03-08T15:43:59.263Z,8.98
2023-03-08T15:46:26.617Z,9.15
2023-03-08T15:48:56.431Z,9.63
2023-03-08T15:51:29.645Z,9.68
2023-03-08T15:53:59.357Z,9.57
2023-03-08T15:56:28.755Z,9.82
2023-03-08T15:58:56.667Z,9.15
2023-03-08T16:01:26.306Z,9.52
2023-03-08T16:03:55.813Z,9.45
2023-03-08T16:06:23.232Z,10.60
2023-03-08T16:08:50.771Z,10.02
2023-03-08T16:11:22.200Z,10.05
2023-03-08T16:13:51.547Z,10.27
2023-03-08T16:16:20.111Z,10.25
2023-03-08T16:18:48.555Z,10.13
2023-03-08T16:21:19.007Z,10.27
2023-03-08T16:23:46.239Z,11.68
2023-03-08T16:26:17.401Z,11.25
2023-03-08T16:28:46.884Z,11.13
2023-03-08T16:31:15.578Z,10.68
2023-03-08T16:33:42.976Z,10.35
2023-03-08T16:36:14.046Z,9.70
2023-03-08T16:38:41.882Z,10.38
2023-03-08T16:41:13.120Z,10.93
2023-03-08T16:43:47.751Z,10.48
2023-03-08T16:46:17.938Z,9.45
2023-03-08T16:48:49.357Z,10.18
2023-03-08T16:51:18.746Z,10.43
2023-03-08T16:53:46.484Z,12.25
2023-03-08T16:56:27.241Z,11.57
2023-03-08T16:58:56.189Z,9.63
2023-03-08T17:01:24.385Z,10.60
2023-03-08T17:03:58.538Z,11.02
2023-03-08T17:06:28.971Z,10.23
2023-03-08T17:09:00.403Z,10.60
2023-03-08T17:11:30.585Z,11.43
2023-03-08T17:14:05.121Z,11.68
2023-03-08T17:16:33.802Z,10.77
2023-03-08T17:19:08.011Z,11.60
2023-03-08T17:21:38.140Z,10.90
2023-03-08T17:24:10.039Z,10.95
2023-03-08T17:26:42.281Z,12.18
2023-03-08T17:29:09.742Z,11.43
2023-03-08T17:31:41.711Z,11.70
2023-03-08T17:34:11.530Z,11.57
2023-03-08T17:36:41.547Z,11.75
2023-03-08T17:39:09.106Z,12.95
2023-03-08T17:41:38.512Z,12.07
2023-03-08T17:44:05.856Z,12.43
2023-03-08T17:46:33.126Z,13.32
2023-03-08T17:49:02.916Z,13.15
2023-03-08T17:51:34.363Z,11.90
2023-03-08T17:54:03.070Z,12.45
2023-03-08T17:56:31.883Z,11.55
2023-03-08T17:59:00.587Z,12.07
2023-03-08T18:01:30.139Z,12.05
2023-03-08T18:03:58.136Z,13.55
2023-03-08T18:06:38.595Z,14.60
2023-03-08T18:09:08.520Z,13.40
2023-03-08T18:11:37.732Z,13.25
2023-03-08T18:14:09.394Z,12.88
2023-03-08T18:16:36.959Z,12.93
2023-03-08T18:19:04.789Z,12.43
2023-03-08T18:21:36.148Z,13.55
2023-03-08T18:24:05.247Z,13.27
2023-03-08T18:26:35.411Z,13.70
2023-03-08T18:29:04.907Z,13.70
2023-03-08T18:31:37.384Z,14.40
2023-03-08T18:34:06.066Z,13.77
2023-03-08T18:36:34.056Z,13.70
2023-03-08T18:39:05.661Z,12.85
2023-03-08T18:41:36.282Z,14.98
2023-03-08T18:44:08.636Z,15.68
2023-03-08T18:46:38.541Z,14.48
2023-03-08T18:49:10.483Z,14.13
2023-03-08T18:51:41.834Z,14.45
2023-03-08T18:54:13.361Z,15.20
2023-03-08T18:56:40.746Z,16.95
2023-03-08T18:59:11.373Z,15.88
2023-03-08T19:01:38.705Z,15.43
2023-03-08T19:04:07.994Z,15.18
2023-03-08T19:06:36.414Z,17.83
2023-03-08T19:09:13.899Z,18.17
2023-03-08T19:11:44.267Z,18.65
2023-03-08T19:14:15.066Z,16.63
2023-03-08T19:16:42.843Z,14.93
2023-03-08T19:19:13.576Z,16.80
2023-03-08T19:21:45.732Z,15.68
2023-03-08T19:24:19.279Z,15.10
2023-03-08T19:26:51.198Z,16.45
2023-03-08T19:29:21.637Z,14.82
2023-03-08T19:31:52.232Z,14.60
2023-03-08T19:34:31.662Z,15.32
2023-03-08T19:37:02.451Z,14.85
2023-03-08T19:39:32.966Z,14.60
2023-03-08T19:42:03.489Z,16.08
2023-03-08T19:44:31.732Z,14.82
2023-03-08T19:46:59.780Z,15.98
2023-03-08T19:49:31.602Z,15.88
2023-03-08T19:52:01.031Z,16.00
2023-03-08T19:54:29.555Z,16.35
2023-03-08T19:56:57.581Z,16.05
2023-03-08T19:59:27.674Z,16.80
2023-03-08T20:01:55.972Z,16.23
2023-03-08T20:04:26.514Z,17.20
2023-03-08T20:06:56.271Z,17.65
2023-03-08T20:09:23.908Z,18.80
2023-03-08T20:11:58.395Z,18.45
2023-03-08T20:14:27.593Z,19.10
2023-03-08T20:16:55.804Z,17.70
2023-03-08T20:19:23.207Z,16.20
2023-03-08T20:21:50.760Z,16.55
2023-03-08T20:24:18.871Z,16.33
2023-03-08T20:26:46.982Z,15.73
2023-03-08T20:29:14.381Z,14.25
2023-03-08T20:31:41.871Z,14.95
2023-03-08T20:34:09.294Z,15.07
2023-03-08T20:36:42.147Z,15.27
2023-03-08T20:39:10.855Z,16.38
2023-03-08T20:41:38.134Z,15.57
2023-03-08T20:44:05.443Z,15.43
2023-03-08T20:46:33.854Z,15.32
2023-03-08T20:49:04.036Z,14.93
2023-03-08T20:51:31.319Z,13.73
2023-03-08T20:53:58.644Z,13.77
2023-03-08T20:56:26.547Z,11.80
2023-03-08T20:59:00.497Z,11.05
2023-03-08T21:01:36.887Z,11.63
2023-03-08T21:04:05.850Z,10.95
2023-03-08T21:06:35.350Z,11.48
2023-03-08T21:09:03.287Z,10.57
2023-03-08T21:11:31.100Z,8.48
2023-03-08T21:13:58.378Z,8.90
2023-03-08T21:16:29.143Z,9.50
2023-03-08T21:19:00.453Z,9.10
2023-03-08T21:21:40.686Z,9.82
2023-03-08T21:24:10.607Z,9.80
2023-03-08T21:26:38.181Z,10.20
2023-03-08T21:29:07.987Z,12.05
2023-03-08T21:31:39.175Z,11.40
2023-03-08T21:34:11.009Z,11.85
2023-03-08T21:36:41.304Z,9.82
2023-03-08T21:39:09.066Z,7.50
2023-03-08T21:41:39.015Z,5.40
2023-03-08T21:44:09.703Z,3.97
2023-03-08T21:46:38.624Z,4.10
2023-03-08T21:49:09.192Z,3.58
2023-03-08T21:51:38.914Z,3.30
2023-03-08T21:54:06.306Z,3.00
2023-03-08T21:56:36.488Z,3.00
2023-03-08T21:59:04.083Z,3.20
2023-03-08T22:01:34.352Z,2.53
2023-03-08T22:04:03.058Z,3.00
2023-03-08T22:06:30.753Z,2.90
2023-03-08T22:08:58.297Z,3.20
2023-03-08T22:11:28.538Z,3.13
2023-03-08T22:13:58.115Z,3.05
2023-03-08T22:16:26.497Z,2.97
2023-03-08T22:18:55.893Z,3.22
2023-03-08T22:21:25.809Z,3.30
2023-03-08T22:23:54.203Z,2.97
2023-03-08T22:26:25.672Z,3.05
2023-03-08T22:28:54.808Z,2.85
2023-03-08T22:31:27.154Z,3.42
2023-03-08T22:33:54.726Z,2.70
2023-03-08T22:36:23.203Z,2.97
2023-03-08T22:38:53.215Z,3.28
2023-03-08T22:41:25.820Z,2.97
2023-03-08T22:43:56.255Z,2.80
2023-03-08T22:46:26.569Z,3.30
2023-03-08T22:48:59.169Z,2.88
2023-03-08T22:51:29.605Z,2.78
2023-03-08T22:54:03.888Z,2.70
2023-03-08T22:56:35.101Z,2.40
2023-03-08T22:59:03.055Z,2.33
2023-03-08T23:01:32.402Z,2.00
2023-03-08T23:04:03.241Z,2.42
2023-03-08T23:06:31.830Z,2.37
2023-03-08T23:09:06.163Z,2.25
2023-03-08T23:11:34.050Z,2.10
2023-03-08T23:14:01.416Z,2.40
2023-03-08T23:16:29.433Z,1.85
2023-03-08T23:18:56.758Z,2.20
2023-03-08T23:21:26.222Z,2.20
2023-03-08T23:23:53.630Z,2.40
2023-03-08T23:26:24.600Z,1.98
2023-03-08T23:28:58.007Z,2.25
2023-03-08T23:31:28.222Z,2.20
2023-03-08T23:33:56.907Z,2.28
2023-03-08T23:36:25.698Z,2.45
2023-03-08T23:38:55.854Z,2.60
2023-03-08T23:41:23.686Z,2.35
2023-03-08T23:43:57.929Z,2.45
2023-03-08T23:46:26.020Z,2.80
2023-03-08T23:48:55.957Z,2.70
2023-03-08T23:51:25.747Z,2.50
2023-03-08T23:53:57.701Z,2.47
2023-03-08T23:56:37.867Z,2.15
2023-03-08T23:59:13.171Z,2.40
